Time;durP1;ratioP1;P1;durP2;ratioP2;P2;SDS_P1;SDS_P2;PMS_P1;PMS_P2;Temp;Humidity;BMP_temperature;BMP_pressure;BME280_temperature;BME280_humidity;BME280_pressure;Samples;Min_cycle;Max_cycle;Signal;HPM_P1;HPM_P2
2021/05/12 00:00:57;;;;;;;3.83;1.20;;;;;;;15.12;50.98;100760.70;1808676;76;21626;-41
2021/05/12 00:03:23;;;;;;;3.35;1.17;;;;;;;15.04;50.98;100757.20;1822766;76;21165;-41
2021/05/12 00:05:49;;;;;;;1.37;0.95;;;;;;;14.97;51.00;100761.78;1821240;76;21058;-41
2021/05/12 00:08:16;;;;;;;1.92;0.98;;;;;;;14.93;51.10;100765.20;1815838;76;21590;-42
2021/05/12 00:10:42;;;;;;;2.77;0.90;;;;;;;14.88;51.00;100766.86;1811303;76;21063;-42
2021/05/12 00:13:09;;;;;;;1.80;1.10;;;;;;;14.84;51.08;100774.78;1823275;76;21120;-42
2021/05/12 00:15:35;;;;;;;2.00;1.10;;;;;;;14.80;50.67;100769.73;1819717;77;21981;-43
2021/05/12 00:18:09;;;;;;;1.22;0.90;;;;;;;14.75;50.63;100769.21;1819327;77;21031;-41
2021/05/12 00:20:30;;;;;;;1.98;0.90;;;;;;;14.70;50.81;100768.19;1811867;77;21558;-42
2021/05/12 00:23:03;;;;;;;2.27;1.02;;;;;;;14.64;50.82;100774.86;1826678;77;21069;-41
2021/05/12 00:25:27;;;;;;;1.37;0.88;;;;;;;14.58;50.73;100767.22;1809678;76;21086;-41
2021/05/12 00:27:56;;;;;;;2.20;1.10;;;;;;;14.53;50.69;100775.20;1804265;76;21055;-42
2021/05/12 00:30:22;;;;;;;2.92;1.02;;;;;;;14.47;50.74;100775.16;1805862;76;20993;-41
2021/05/12 00:32:49;;;;;;;3.83;1.30;;;;;;;14.45;51.09;100777.93;1820694;76;21410;-40
2021/05/12 00:35:16;;;;;;;1.32;1.00;;;;;;;14.40;51.35;100778.73;1791546;77;21114;-41
2021/05/12 00:37:42;;;;;;;3.52;1.67;;;;;;;14.36;51.62;100777.22;1802931;76;21081;-39
2021/05/12 00:40:11;;;;;;;1.27;0.90;;;;;;;14.31;51.59;100774.49;1798225;77;20994;-40
2021/05/12 00:42:38;;;;;;;2.17;1.07;;;;;;;14.29;51.86;100774.62;1802731;76;21095;-42
2021/05/12 00:45:06;;;;;;;1.50;1.15;;;;;;;14.25;51.88;100769.92;1826200;76;21045;-44
2021/05/12 00:47:33;;;;;;;1.50;0.80;;;;;;;14.23;51.76;100772.34;1816974;76;21083;-43
2021/05/12 00:50:00;;;;;;;1.92;0.82;;;;;;;14.17;51.70;100772.78;1804502;77;21539;-45
2021/05/12 00:52:27;;;;;;;2.05;1.12;;;;;;;14.11;51.46;100766.48;1806761;77;21136;-44
2021/05/12 00:54:53;;;;;;;1.95;1.17;;;;;;;14.02;51.16;100767.49;1800914;76;21660;-44
2021/05/12 00:57:21;;;;;;;1.77;1.20;;;;;;;13.96;51.40;100771.95;1802993;76;21119;-43
2021/05/12 00:59:49;;;;;;;2.10;0.82;;;;;;;13.91;51.48;100770.06;1823486;76;21049;-46
2021/05/12 01:02:16;;;;;;;1.42;0.90;;;;;;;13.88;51.48;100764.88;1817287;76;21071;-46
2021/05/12 01:04:42;;;;;;;0.95;0.80;;;;;;;13.82;51.62;100769.33;1827188;76;21066;-43
2021/05/12 01:07:09;;;;;;;1.82;1.02;;;;;;;13.75;51.76;100773.38;1812508;77;21086;-43
2021/05/12 01:09:35;;;;;;;0.85;0.80;;;;;;;13.72;51.93;100771.77;1828137;76;21060;-43
2021/05/12 01:12:02;;;;;;;1.92;0.95;;;;;;;13.68;51.88;100772.07;1820241;76;21541;-43
2021/05/12 01:14:29;;;;;;;2.20;1.62;;;;;;;13.63;51.63;100761.20;1816022;77;21086;-42
2021/05/12 01:16:56;;;;;;;3.50;1.42;;;;;;;13.57;51.60;100757.57;1830028;76;21617;-43
2021/05/12 01:19:23;;;;;;;0.98;0.90;;;;;;;13.52;51.62;100753.48;1804452;78;21090;-43
2021/05/12 01:21:49;;;;;;;1.80;1.12;;;;;;;13.48;51.68;100754.19;1810912;76;21003;-41
2021/05/12 01:24:16;;;;;;;2.50;1.05;;;;;;;13.45;52.00;100762.40;1750669;80;21002;-42
2021/05/12 01:26:42;;;;;;;1.00;0.80;;;;;;;13.43;51.94;100769.70;1736843;81;21591;-42
2021/05/12 01:29:09;;;;;;;1.07;0.90;;;;;;;13.39;51.95;100767.69;1757006;79;20992;-42
2021/05/12 01:31:40;;;;;;;1.47;1.12;;;;;;;13.33;51.78;100761.86;1762118;79;20992;-43
2021/05/12 01:34:09;;;;;;;1.55;0.90;;;;;;;13.27;51.63;100757.78;1799067;76;20990;-42
2021/05/12 01:36:36;;;;;;;3.52;0.85;;;;;;;13.21;51.72;100776.41;1813649;77;21185;-43
2021/05/12 01:39:04;;;;;;;1.47;1.00;;;;;;;13.17;51.97;100775.38;1806572;77;21893;-43
2021/05/12 01:41:30;;;;;;;3.00;1.40;;;;;;;13.13;52.12;100777.89;1803066;77;21079;-43
2021/05/12 01:43:56;;;;;;;1.82;1.40;;;;;;;13.06;52.06;100765.36;1816920;77;21605;-42
2021/05/12 01:46:23;;;;;;;1.40;1.10;;;;;;;13.02;52.24;100762.97;1811569;77;21111;-42
2021/05/12 01:48:50;;;;;;;1.30;1.20;;;;;;;12.96;52.29;100767.77;1811234;76;21517;-43
2021/05/12 01:51:17;;;;;;;2.60;1.40;;;;;;;12.89;52.42;100777.14;1826150;76;21130;-42
2021/05/12 01:53:44;;;;;;;2.60;1.62;;;;;;;12.84;52.46;100774.38;1805211;76;21114;-40
2021/05/12 01:56:11;;;;;;;2.30;1.45;;;;;;;12.80;52.52;100785.77;1819722;77;21100;-40
2021/05/12 01:58:38;;;;;;;2.77;1.65;;;;;;;12.76;52.59;100781.55;1808755;76;21685;-42
2021/05/12 02:01:04;;;;;;;2.22;1.40;;;;;;;12.72;52.70;100781.34;1807344;76;21094;-42
2021/05/12 02:03:30;;;;;;;2.45;1.60;;;;;;;12.63;52.68;100781.46;1795450;78;21560;-42
2021/05/12 02:05:57;;;;;;;5.75;1.62;;;;;;;12.54;52.79;100781.54;1799744;76;21052;-42
2021/05/12 02:08:26;;;;;;;3.00;1.42;;;;;;;12.49;52.94;100778.29;1808252;76;21201;-41
2021/05/12 02:10:56;;;;;;;2.67;1.35;;;;;;;12.45;53.28;100776.78;1814584;76;21564;-41
2021/05/12 02:13:24;;;;;;;2.95;1.30;;;;;;;12.44;53.43;100777.71;1820628;77;20999;-42
2021/05/12 02:15:52;;;;;;;1.37;0.90;;;;;;;12.40;53.55;100780.22;1821146;76;21652;-43
2021/05/12 02:18:19;;;;;;;1.55;1.22;;;;;;;12.36;53.78;100785.84;1817862;76;21578;-43
2021/05/12 02:20:45;;;;;;;3.62;1.30;;;;;;;12.32;53.76;100787.37;1795593;77;21027;-42
2021/05/12 02:23:13;;;;;;;1.65;1.20;;;;;;;12.29;53.89;100792.02;1794787;77;21090;-43
2021/05/12 02:25:40;;;;;;;1.27;0.90;;;;;;;12.26;54.00;100791.73;1809730;76;21109;-43
2021/05/12 02:28:07;;;;;;;2.27;1.37;;;;;;;12.26;54.17;100801.58;1815109;77;21111;-43
2021/05/12 02:30:34;;;;;;;3.05;1.65;;;;;;;12.24;54.17;100798.12;1817948;76;21014;-43
2021/05/12 02:33:00;;;;;;;2.55;1.65;;;;;;;12.21;54.10;100800.99;1805346;77;21440;-43
2021/05/12 02:35:27;;;;;;;2.87;0.98;;;;;;;12.17;54.20;100803.00;1824469;76;21205;-43
2021/05/12 02:37:53;;;;;;;3.08;1.27;;;;;;;12.15;54.42;100810.25;1790493;77;21453;-42
2021/05/12 02:40:21;;;;;;;2.67;1.02;;;;;;;12.10;54.46;100802.50;1809238;77;21051;-42
2021/05/12 02:42:48;;;;;;;1.72;1.30;;;;;;;12.08;54.52;100812.41;1806266;76;21157;-42
2021/05/12 02:45:15;;;;;;;2.00;1.10;;;;;;;12.04;54.66;100806.86;1822221;76;21070;-41
2021/05/12 02:47:41;;;;;;;2.00;1.35;;;;;;;12.01;54.86;100806.19;1800813;77;21029;-41
2021/05/12 02:50:10;;;;;;;1.80;1.20;;;;;;;11.98;55.03;100811.73;1802961;77;21059;-42
2021/05/12 02:52:39;;;;;;;1.60;1.32;;;;;;;11.95;55.22;100814.59;1814605;77;21162;-41
2021/05/12 02:55:06;;;;;;;1.67;1.40;;;;;;;11.93;55.36;100819.16;1815752;76;20978;-42
2021/05/12 02:57:32;;;;;;;2.25;1.20;;;;;;;11.90;55.38;100813.03;1805119;77;21077;-42
2021/05/12 02:59:59;;;;;;;2.70;1.27;;;;;;;11.87;55.74;100813.22;1829316;76;21070;-41
2021/05/12 03:02:25;;;;;;;1.42;1.05;;;;;;;11.86;56.09;100811.48;1815814;77;21828;-43
2021/05/12 03:04:51;;;;;;;1.22;1.00;;;;;;;11.85;56.34;100808.41;1813254;76;21558;-42
2021/05/12 03:07:18;;;;;;;1.42;1.15;;;;;;;11.83;56.32;100808.11;1815428;76;20994;-43
2021/05/12 03:09:44;;;;;;;1.57;1.45;;;;;;;11.81;56.44;100803.32;1813497;76;21053;-48
2021/05/12 03:12:11;;;;;;;2.87;1.50;;;;;;;11.80;56.69;100808.30;1802652;77;21075;-43
2021/05/12 03:14:38;;;;;;;1.90;1.15;;;;;;;11.79;56.72;100803.44;1814168;76;21090;-44
2021/05/12 03:17:04;;;;;;;2.02;1.30;;;;;;;11.78;56.67;100807.03;1825659;76;21006;-44
2021/05/12 03:19:30;;;;;;;3.55;1.10;;;;;;;11.78;56.56;100807.03;1818787;76;21156;-45
2021/05/12 03:21:57;;;;;;;1.32;0.82;;;;;;;11.76;56.62;100807.59;1804652;76;20999;-45
2021/05/12 03:24:24;;;;;;;1.67;1.07;;;;;;;11.74;56.50;100805.48;1825563;76;20983;-46
2021/05/12 03:26:51;;;;;;;1.90;1.20;;;;;;;11.75;56.45;100805.88;1790720;77;20999;-44
2021/05/12 03:29:18;;;;;;;1.80;1.02;;;;;;;11.76;56.43;100799.58;1809476;77;21033;-44
2021/05/12 03:31:44;;;;;;;2.30;1.35;;;;;;;11.77;56.41;100795.97;1826737;77;21051;-44
2021/05/12 03:34:11;;;;;;;1.67;1.02;;;;;;;11.77;56.45;100799.98;1827141;76;20983;-42
2021/05/12 03:36:37;;;;;;;3.50;2.50;;;;;;;11.75;56.53;100797.88;1813518;76;21047;-41
2021/05/12 03:39:04;;;;;;;1.57;1.15;;;;;;;11.75;56.96;100794.34;1774797;78;21024;-45
2021/05/12 03:41:30;;;;;;;2.55;1.12;;;;;;;11.78;56.92;100791.48;1822419;76;21546;-43
2021/05/12 03:43:56;;;;;;;1.70;1.00;;;;;;;11.80;56.95;100784.25;1813558;76;21482;-43
2021/05/12 03:46:23;;;;;;;1.80;1.07;;;;;;;11.81;56.86;100786.81;1825536;76;20999;-43
2021/05/12 03:48:49;;;;;;;1.45;1.20;;;;;;;11.80;56.55;100785.10;1817941;76;20976;-41
2021/05/12 03:51:16;;;;;;;3.10;1.32;;;;;;;11.78;56.61;100787.48;1823720;76;20978;-42
2021/05/12 03:53:42;;;;;;;0.85;0.78;;;;;;;11.79;56.60;100791.86;1806876;76;21021;-45
2021/05/12 03:56:08;;;;;;;2.08;0.82;;;;;;;11.75;56.76;100784.52;1800425;78;21007;-46
2021/05/12 03:58:35;;;;;;;1.82;0.93;;;;;;;11.76;56.75;100786.70;1813909;76;22019;-43
2021/05/12 04:01:01;;;;;;;1.98;1.02;;;;;;;11.80;56.97;100793.60;1806285;77;21540;-43
2021/05/12 04:03:30;;;;;;;1.77;0.75;;;;;;;11.83;57.07;100791.59;1801322;77;21572;-42
2021/05/12 04:05:56;;;;;;;1.82;0.70;;;;;;;11.87;57.00;100791.84;1822367;76;20979;-40
2021/05/12 04:08:26;;;;;;;0.90;0.80;;;;;;;11.89;56.95;100787.73;1823450;76;21023;-43
2021/05/12 04:10:53;;;;;;;1.00;0.88;;;;;;;11.94;57.11;100796.33;1812831;76;21618;-43
2021/05/12 04:13:20;;;;;;;1.35;0.90;;;;;;;11.95;56.88;100802.56;1809988;76;21089;-46
2021/05/12 04:15:47;;;;;;;1.20;0.80;;;;;;;11.95;57.23;100799.41;1821327;76;21583;-45
2021/05/12 04:18:15;;;;;;;2.60;0.72;;;;;;;11.99;57.32;100812.09;1827510;76;21566;-44
2021/05/12 04:20:41;;;;;;;1.77;0.80;;;;;;;11.97;57.55;100806.86;1805340;77;21517;-43
2021/05/12 04:23:08;;;;;;;2.08;0.70;;;;;;;11.98;57.62;100799.22;1810274;76;21095;-44
2021/05/12 04:25:34;;;;;;;2.37;0.50;;;;;;;12.02;57.44;100805.23;1819858;76;21059;-45
2021/05/12 04:28:01;;;;;;;1.95;0.50;;;;;;;12.03;57.56;100792.27;1800005;77;21704;-45
2021/05/12 04:30:30;;;;;;;0.85;0.53;;;;;;;12.05;57.76;100794.38;1803119;76;21066;-45
2021/05/12 04:32:59;;;;;;;0.85;0.70;;;;;;;12.10;58.08;100803.84;1803995;76;21598;-44
2021/05/12 04:35:24;;;;;;;1.27;0.67;;;;;;;12.12;57.58;100795.73;1813921;77;21169;-43
2021/05/12 04:37:50;;;;;;;1.00;0.60;;;;;;;12.15;57.75;100784.00;1770159;78;21647;-46
2021/05/12 04:40:18;;;;;;;2.10;1.15;;;;;;;12.19;57.86;100799.73;1748496;79;20988;-44
2021/05/12 04:42:44;;;;;;;3.50;1.30;;;;;;;12.21;57.58;100792.97;1763354;79;21531;-41
2021/05/12 04:45:12;;;;;;;2.33;0.80;;;;;;;12.21;57.38;100797.84;1782886;78;21033;-42
2021/05/12 04:47:38;;;;;;;2.67;0.45;;;;;;;12.21;57.75;100800.99;1765128;79;21013;-41
2021/05/12 04:50:07;;;;;;;2.50;0.50;;;;;;;12.25;57.44;100795.38;1765426;79;21352;-41
2021/05/12 04:52:33;;;;;;;1.62;0.70;;;;;;;12.29;57.07;100787.53;1762774;79;21032;-43
2021/05/12 04:54:59;;;;;;;1.32;0.90;;;;;;;12.33;57.43;100792.23;1762282;80;21424;-45
2021/05/12 04:57:26;;;;;;;1.52;0.68;;;;;;;12.35;57.11;100783.64;1758122;79;20958;-41
2021/05/12 04:59:52;;;;;;;1.00;0.70;;;;;;;12.36;57.29;100776.48;1745712;80;21108;-42
2021/05/12 05:02:18;;;;;;;1.50;0.70;;;;;;;12.37;57.65;100775.03;1756753;80;21382;-42
2021/05/12 05:04:45;;;;;;;1.57;0.80;;;;;;;12.39;57.41;100773.61;1759169;79;21053;-38
2021/05/12 05:07:11;;;;;;;0.85;0.55;;;;;;;12.41;57.77;100778.39;1763201;79;20982;-41
2021/05/12 05:09:38;;;;;;;1.42;0.78;;;;;;;12.44;58.44;100784.88;1721547;81;20997;-49
2021/05/12 05:12:05;;;;;;;0.80;0.70;;;;;;;12.48;58.11;100777.06;1757069;79;21013;-43
2021/05/12 05:14:31;;;;;;;1.32;0.62;;;;;;;12.53;57.96;100781.66;1735528;80;21066;-42
2021/05/12 05:16:58;;;;;;;1.30;0.88;;;;;;;12.56;58.04;100783.64;1753021;79;21002;-44
2021/05/12 05:19:25;;;;;;;1.07;0.72;;;;;;;12.61;57.80;100783.85;1754498;79;20998;-43
2021/05/12 05:21:51;;;;;;;1.22;1.00;;;;;;;12.65;57.83;100784.91;1736168;79;21028;-41
2021/05/12 05:24:18;;;;;;;2.58;0.98;;;;;;;12.70;57.69;100788.61;1750463;79;21563;-41
2021/05/12 05:26:44;;;;;;;0.88;0.80;;;;;;;12.74;57.61;100788.33;1763829;79;20965;-41
2021/05/12 05:29:11;;;;;;;2.72;0.95;;;;;;;12.76;57.42;100794.45;1781778;78;21053;-41
2021/05/12 05:31:37;;;;;;;2.60;1.07;;;;;;;12.76;57.08;100786.42;1760422;79;21474;-40
2021/05/12 05:34:21;;;;;;;7.05;5.55;;;;;;;12.80;57.03;100787.11;1757818;79;20972;-43
2021/05/12 05:37:06;;;;;;;1.47;0.98;;;;;;;12.83;57.10;100781.55;1823004;76;21043;-42
2021/05/12 05:39:52;;;;;;;0.70;0.70;;;;;;;12.87;57.40;100787.55;1825586;76;21017;-46
2021/05/12 05:42:36;;;;;;;1.90;0.85;;;;;;;12.90;57.36;100782.89;1824291;76;21580;-46
2021/05/12 05:45:21;;;;;;;2.30;0.85;;;;;;;12.96;57.81;100787.84;1745320;80;21049;-44
2021/05/12 05:48:06;;;;;;;1.15;0.65;;;;;;;13.02;56.87;100785.24;1753383;80;21041;-44
2021/05/12 05:50:50;;;;;;;0.90;0.65;;;;;;;13.06;56.62;100781.91;1762085;79;20995;-41
2021/05/12 05:53:35;;;;;;;0.65;0.62;;;;;;;13.09;56.50;100775.02;1756820;79;21031;-42
2021/05/12 05:56:19;;;;;;;1.40;0.80;;;;;;;13.12;56.45;100778.82;1783948;78;21076;-41
2021/05/12 05:59:03;;;;;;;0.60;0.60;;;;;;;13.16;56.34;100773.66;1751211;80;21072;-42
2021/05/12 06:01:47;;;;;;;2.42;0.93;;;;;;;13.19;56.22;100776.14;1826471;77;20984;-41
2021/05/12 06:04:14;;;;;;;0.85;0.65;;;;;;;13.23;55.52;100774.10;1821360;76;20986;-41
2021/05/12 06:06:58;;;;;;;1.60;0.85;;;;;;;13.25;55.41;100772.19;1809351;76;21520;-41
2021/05/12 06:09:40;;;;;;;1.17;0.68;;;;;;;13.26;55.46;100770.77;1746319;80;21020;-42
2021/05/12 06:12:25;;;;;;;0.98;0.80;;;;;;;13.27;55.04;100777.01;1740334;80;21130;-41
2021/05/12 06:15:14;;;;;;;2.02;0.70;;;;;;;13.27;55.48;100781.88;1739760;80;21020;-41
2021/05/12 06:17:40;;;;;;;;;;;;;;;13.29;55.23;100779.97;1667420;84;21795;-41
2021/05/12 06:20:25;;;;;;;0.57;0.57;;;;;;;13.30;54.58;100775.46;1661301;84;20230;-40
2021/05/12 06:23:14;;;;;;;1.02;0.50;;;;;;;13.30;54.54;100771.44;1668132;84;21671;-42
2021/05/12 06:26:12;;;;;;;1.05;0.70;;;;;;;13.32;54.39;100777.56;1664445;84;21050;-40
2021/05/12 06:28:50;;;;;;;1.10;0.68;;;;;;;13.32;54.51;100775.73;1647297;84;21058;-41
2021/05/12 06:31:40;;;;;;;1.20;0.70;;;;;;;13.36;54.81;100779.09;1668209;84;21122;-44
2021/05/12 06:34:14;;;;;;;1.52;0.57;;;;;;;13.38;54.27;100778.48;1609514;87;21032;-41
2021/05/12 06:36:59;;;;;;;0.53;0.40;;;;;;;13.40;54.16;100775.23;1585969;88;21173;-42
2021/05/12 06:39:44;;;;;;;0.72;0.40;;;;;;;13.41;53.72;100773.81;1612424;87;21522;-40
2021/05/12 06:42:11;;;;;;;0.30;0.28;;;;;;;13.44;52.85;100769.22;1611032;85;21050;-42
2021/05/12 06:44:39;;;;;;;1.10;0.60;;;;;;;13.47;52.72;100766.33;1620497;84;21153;-42
2021/05/12 06:47:06;;;;;;;1.30;0.78;;;;;;;13.49;52.74;100759.91;1646395;84;21112;-43
2021/05/12 06:49:33;;;;;;;4.00;0.78;;;;;;;13.55;53.01;100770.20;1660656;84;21053;-38
2021/05/12 06:51:59;;;;;;;3.02;0.62;;;;;;;13.59;52.79;100765.03;1668428;84;21096;-39
2021/05/12 06:54:25;;;;;;;1.25;0.70;;;;;;;13.63;52.72;100771.03;1681952;81;21030;-42
2021/05/12 06:56:52;;;;;;;1.02;0.65;;;;;;;13.64;52.18;100762.05;1732447;80;21001;-38
2021/05/12 06:59:18;;;;;;;2.58;0.47;;;;;;;13.66;53.05;100758.80;1727960;80;21044;-37
2021/05/12 07:01:45;;;;;;;1.15;0.40;;;;;;;13.70;51.00;100762.11;1730225;80;21056;-37
2021/05/12 07:04:11;;;;;;;0.57;0.20;;;;;;;13.73;51.07;100757.39;1723246;80;21013;-39
2021/05/12 07:06:37;;;;;;;0.20;0.20;;;;;;;13.76;50.66;100761.23;1717743;80;21624;-38
2021/05/12 07:09:04;;;;;;;0.57;0.40;;;;;;;13.78;50.48;100756.63;1724466;80;21045;-41
2021/05/12 07:11:30;;;;;;;0.68;0.30;;;;;;;13.81;50.77;100755.08;1766925;77;21319;-42
2021/05/12 07:13:57;;;;;;;0.40;0.30;;;;;;;13.85;49.86;100762.42;1813562;76;21086;-36
2021/05/12 07:16:23;;;;;;;0.80;0.30;;;;;;;13.86;50.54;100769.52;1820380;76;21067;-36
2021/05/12 07:18:50;;;;;;;0.33;0.20;;;;;;;13.89;50.00;100764.42;1804576;77;21082;-41
2021/05/12 07:21:16;;;;;;;0.40;0.23;;;;;;;13.89;49.83;100763.09;1819819;77;21051;-38
2021/05/12 07:23:44;;;;;;;3.12;0.50;;;;;;;13.88;49.79;100762.20;1763339;79;21532;-39
2021/05/12 07:26:11;;;;;;;1.95;0.62;;;;;;;13.86;50.08;100760.13;1766175;79;21630;-38
2021/05/12 07:28:38;;;;;;;1.60;0.50;;;;;;;13.84;50.17;100759.37;1775445;78;20998;-38
2021/05/12 07:31:04;;;;;;;1.98;0.40;;;;;;;13.83;50.04;100763.88;1819929;77;21081;-37
2021/05/12 07:33:30;;;;;;;1.60;0.88;;;;;;;13.84;50.35;100763.39;1810927;77;21051;-39
2021/05/12 07:35:57;;;;;;;2.35;1.10;;;;;;;13.83;50.68;100763.88;1803192;77;21177;-37
2021/05/12 07:38:23;;;;;;;1.60;0.70;;;;;;;13.81;50.80;100764.95;1807629;77;21137;-38
2021/05/12 07:40:50;;;;;;;0.80;0.50;;;;;;;13.79;50.74;100760.17;1812019;77;21063;-39
2021/05/12 07:43:16;;;;;;;2.35;0.50;;;;;;;13.77;51.05;100759.41;1812068;76;21405;-43
2021/05/12 07:45:43;;;;;;;0.62;0.42;;;;;;;13.77;51.41;100758.06;1827870;76;21080;-38
2021/05/12 07:48:11;;;;;;;1.20;0.82;;;;;;;13.75;51.67;100759.50;1823744;76;21121;-42
2021/05/12 07:50:38;;;;;;;0.90;0.42;;;;;;;13.72;51.55;100761.53;1749831;80;21017;-44
2021/05/12 07:53:06;;;;;;;2.42;0.65;;;;;;;13.70;51.76;100776.85;1768217;80;21503;-38
2021/05/12 07:55:33;;;;;;;2.92;0.60;;;;;;;13.67;51.60;100781.09;1820651;77;21571;-38
2021/05/12 07:57:59;;;;;;;1.07;0.50;;;;;;;13.63;51.68;100771.03;1820323;76;21109;-40
2021/05/12 08:00:26;;;;;;;0.78;0.60;;;;;;;13.60;52.10;100773.44;1807561;76;21171;-37
2021/05/12 08:02:52;;;;;;;2.40;0.60;;;;;;;13.58;51.94;100775.39;1820260;76;21103;-45
2021/05/12 08:05:18;;;;;;;0.90;0.57;;;;;;;13.58;52.20;100772.70;1817759;76;21082;-48
2021/05/12 08:07:45;;;;;;;1.02;0.60;;;;;;;13.58;52.24;100763.33;1813788;77;21097;-39
2021/05/12 08:10:11;;;;;;;1.62;0.85;;;;;;;13.60;52.05;100754.68;1819970;76;20999;-40
2021/05/12 08:12:38;;;;;;;1.87;0.45;;;;;;;13.62;51.93;100743.88;1812270;77;21043;-39
2021/05/12 08:15:06;;;;;;;0.25;0.25;;;;;;;13.63;51.71;100745.13;1823963;76;21089;-38
2021/05/12 08:17:33;;;;;;;0.98;0.50;;;;;;;13.66;51.72;100747.19;1759649;80;20999;-38
2021/05/12 08:20:00;;;;;;;2.55;0.57;;;;;;;13.66;51.28;100746.73;1817745;76;21148;-44
2021/05/12 08:22:26;;;;;;;1.10;0.80;;;;;;;13.69;51.01;100750.55;1820713;76;21453;-39
2021/05/12 08:24:52;;;;;;;0.75;0.55;;;;;;;13.72;51.05;100748.14;1820279;76;21102;-40
2021/05/12 08:27:19;;;;;;;0.98;0.40;;;;;;;13.74;51.22;100741.71;1821692;77;21027;-41
2021/05/12 08:29:46;;;;;;;0.70;0.50;;;;;;;13.74;50.99;100738.18;1818785;76;21062;-40
2021/05/12 08:32:15;;;;;;;0.72;0.30;;;;;;;13.77;50.99;100736.62;1825030;77;21598;-40
2021/05/12 08:34:41;;;;;;;1.17;0.30;;;;;;;13.79;51.12;100726.66;1823689;76;21114;-43
2021/05/12 08:37:07;;;;;;;0.40;0.35;;;;;;;13.81;50.54;100725.59;1823285;76;21660;-39
2021/05/12 08:39:34;;;;;;;0.20;0.10;;;;;;;13.83;50.91;100721.45;1815093;76;21012;-38
2021/05/12 08:42:01;;;;;;;0.60;0.40;;;;;;;13.88;51.13;100723.83;1822244;76;21064;-41
2021/05/12 08:44:27;;;;;;;0.90;0.30;;;;;;;13.90;51.11;100711.18;1826624;76;21553;-41
2021/05/12 08:46:54;;;;;;;0.90;0.40;;;;;;;13.94;51.26;100712.70;1827597;76;21107;-42
2021/05/12 08:49:22;;;;;;;1.90;0.75;;;;;;;13.97;51.39;100709.80;1805769;76;21093;-41
2021/05/12 08:51:49;;;;;;;1.77;1.25;;;;;;;14.00;51.42;100700.20;1793408;77;21102;-38
2021/05/12 08:54:15;;;;;;;0.93;0.55;;;;;;;14.05;51.59;100698.91;1818018;76;21001;-39
2021/05/12 08:56:41;;;;;;;1.62;1.22;;;;;;;14.12;51.64;100702.52;1822419;77;21405;-40
2021/05/12 08:59:08;;;;;;;1.75;0.40;;;;;;;14.14;51.38;100698.77;1812371;76;21078;-40
2021/05/12 09:01:35;;;;;;;0.98;0.53;;;;;;;14.18;50.76;100696.71;1809731;77;21059;-39
2021/05/12 09:04:02;;;;;;;2.30;0.30;;;;;;;14.17;50.56;100695.86;1814103;76;21078;-41
2021/05/12 09:06:28;;;;;;;1.82;0.50;;;;;;;14.19;50.38;100699.30;1812879;76;21011;-38
2021/05/12 09:08:57;;;;;;;1.00;0.40;;;;;;;14.21;50.91;100692.47;1824626;77;21066;-39
2021/05/12 09:11:23;;;;;;;2.17;1.00;;;;;;;14.22;51.62;100687.50;1826859;76;21067;-40
2021/05/12 09:13:49;;;;;;;1.07;0.50;;;;;;;14.27;50.79;100686.20;1828665;76;21401;-38
2021/05/12 09:16:25;;;;;;;0.88;0.45;;;;;;;14.31;50.95;100687.31;1818262;76;21486;-40
2021/05/12 09:19:08;;;;;;;3.27;1.40;;;;;;;14.35;50.68;100680.78;1808382;77;21103;-39
2021/05/12 09:21:49;;;;;;;1.15;0.60;;;;;;;14.37;50.10;100682.88;1817938;77;21654;-40
2021/05/12 09:24:24;;;;;;;;;;;;;;;14.39;50.33;100676.44;1792397;77;21079;-42
2021/05/12 09:26:52;;;;;;;0.80;0.50;;;;;;;14.42;49.95;100670.84;1820094;76;20544;-39
2021/05/12 09:29:34;;;;;;;0.98;0.60;;;;;;;14.46;50.63;100668.33;1820080;76;21082;-38
2021/05/12 09:32:05;;;;;;;1.15;0.30;;;;;;;14.49;50.32;100669.44;1786199;77;21014;-40
2021/05/12 09:35:02;;;;;;;0.65;0.42;;;;;;;14.51;50.22;100670.65;1797492;77;21018;-45
2021/05/12 09:37:42;;;;;;;0.50;0.33;;;;;;;14.52;50.12;100660.80;1826123;76;21144;-39
2021/05/12 09:40:13;;;;;;;10.03;2.47;;;;;;;14.54;49.55;100657.07;1814091;76;20996;-40
2021/05/12 09:42:41;;;;;;;6.72;1.60;;;;;;;14.56;49.77;100656.94;1783741;78;21509;-43
2021/05/12 09:45:17;;;;;;;15.95;4.53;;;;;;;14.58;49.11;100657.20;1813280;77;21067;-40
2021/05/12 09:47:45;;;;;;;2.15;0.85;;;;;;;14.61;49.74;100658.80;1823542;76;21062;-41
2021/05/12 09:50:24;;;;;;;3.45;1.10;;;;;;;14.67;49.98;100659.72;1818594;76;21108;-39
2021/05/12 09:52:58;;;;;;;3.33;0.68;;;;;;;14.71;48.80;100658.51;1803222;76;21035;-41
2021/05/12 09:55:46;;;;;;;0.90;0.30;;;;;;;14.74;48.72;100665.02;1809550;76;21098;-42
2021/05/12 09:58:17;;;;;;;2.12;0.60;;;;;;;14.75;48.45;100667.21;1824055;76;21096;-39
2021/05/12 10:00:47;;;;;;;3.85;0.82;;;;;;;14.75;48.41;100663.19;1803328;78;21141;-41
2021/05/12 10:03:13;;;;;;;0.68;0.50;;;;;;;14.74;48.33;100662.34;1820750;76;21076;-42
2021/05/12 10:06:01;;;;;;;1.22;0.50;;;;;;;14.76;49.30;100660.86;1804752;76;21126;-46
2021/05/12 10:08:35;;;;;;;2.02;0.40;;;;;;;14.80;50.01;100651.63;1788631;78;21007;-41
2021/05/12 10:11:14;;;;;;;0.53;0.33;;;;;;;14.86;49.59;100651.16;1815598;76;21035;-42
2021/05/12 10:13:38;;;;;;;0.72;0.50;;;;;;;14.92;49.14;100644.02;1819484;77;21017;-42
2021/05/12 10:16:08;;;;;;;1.00;0.70;;;;;;;14.98;48.74;100648.06;1821138;76;21073;-42
2021/05/12 10:18:34;;;;;;;0.85;0.60;;;;;;;15.03;47.69;100642.72;1827416;76;21098;-41
2021/05/12 10:21:01;;;;;;;0.98;0.70;;;;;;;15.07;47.68;100639.34;1774530;77;20987;-42
2021/05/12 10:23:28;;;;;;;2.90;0.50;;;;;;;15.09;47.30;100644.96;1824013;76;21374;-41
2021/05/12 10:25:54;;;;;;;0.30;0.28;;;;;;;15.09;47.37;100647.64;1825861;76;21538;-41
2021/05/12 10:28:21;;;;;;;1.07;0.68;;;;;;;15.10;47.81;100648.50;1806305;77;20945;-41
2021/05/12 10:30:50;;;;;;;1.85;0.33;;;;;;;15.09;48.14;100642.28;1812103;76;21041;-42
2021/05/12 10:33:19;;;;;;;1.57;0.60;;;;;;;15.09;48.25;100646.30;1813166;77;21519;-42
2021/05/12 10:35:45;;;;;;;0.45;0.37;;;;;;;15.11;48.75;100643.48;1775071;76;21120;-41
2021/05/12 10:38:31;;;;;;;4.85;0.37;;;;;;;15.13;48.34;100645.08;1814000;76;21065;-40
2021/05/12 10:40:57;;;;;;;2.40;0.93;;;;;;;15.15;47.96;100639.61;1808744;76;21610;-41
2021/05/12 10:43:30;;;;;;;1.32;0.72;;;;;;;15.17;48.75;100647.07;1829180;76;21978;-40
2021/05/12 10:46:01;;;;;;;0.20;0.20;;;;;;;15.19;48.04;100641.56;1763664;78;21031;-45
2021/05/12 10:48:47;;;;;;;0.90;0.50;;;;;;;15.21;48.29;100634.25;1795332;77;21639;-44
2021/05/12 10:51:33;;;;;;;0.60;0.50;;;;;;;15.25;48.54;100631.23;1838973;76;21061;-39
2021/05/12 10:54:06;;;;;;;0.40;0.40;;;;;;;15.31;48.11;100626.72;1830376;76;21595;-42
2021/05/12 10:56:42;;;;;;;1.27;0.42;;;;;;;15.38;48.45;100622.23;1812778;76;21109;-39
2021/05/12 10:59:12;;;;;;;0.50;0.50;;;;;;;15.42;47.86;100618.33;1819587;76;21102;-42
2021/05/12 11:01:49;;;;;;;1.17;0.42;;;;;;;15.43;48.14;100616.02;1825611;76;21034;-42
2021/05/12 11:04:17;;;;;;;2.65;0.47;;;;;;;15.46;48.01;100611.75;1824031;76;21854;-41
2021/05/12 11:06:52;;;;;;;1.02;0.45;;;;;;;15.47;48.18;100605.39;1824373;76;21006;-41
2021/05/12 11:09:22;;;;;;;0.93;0.40;;;;;;;15.50;47.86;100611.90;1801141;76;21057;-43
2021/05/12 11:11:54;;;;;;;1.40;0.55;;;;;;;15.52;47.67;100597.83;1816530;76;21096;-40
2021/05/12 11:14:31;;;;;;;0.55;0.40;;;;;;;15.54;47.59;100599.42;1803653;77;21111;-41
2021/05/12 11:17:14;;;;;;;1.80;0.40;;;;;;;15.59;47.41;100597.73;1822544;76;21100;-40
2021/05/12 11:19:56;;;;;;;1.50;0.72;;;;;;;15.63;47.54;100588.95;1827165;76;21039;-42
2021/05/12 11:25:38;;;;;;;1.27;0.40;;;;;;;15.68;47.02;100584.08;1799890;76;21066;-40
2021/05/12 11:33:34;;;;;;;2.25;0.60;;;;;;;15.68;46.95;100579.55;1795047;78;21170;-42
2021/05/12 11:36:07;;;;;;;1.30;0.50;;;;;;;15.73;47.13;100581.42;1819162;76;21208;-43
2021/05/12 11:38:33;;;;;;;3.27;0.60;;;;;;;15.78;46.71;100572.51;1824880;76;21068;-40
2021/05/12 11:41:11;;;;;;;1.82;0.40;;;;;;;15.82;46.37;100579.83;1815754;77;21429;-39
2021/05/12 11:43:46;;;;;;;1.82;0.60;;;;;;;15.84;46.47;100577.03;1799178;77;21019;-40
2021/05/12 11:46:18;;;;;;;1.25;0.30;;;;;;;15.84;46.45;100575.19;1821019;76;21094;-39